Time;durP1;ratioP1;P1;durP2;ratioP2;P2;SDS_P1;SDS_P2;PMS_P1;PMS_P2;Temp;Humidity;BMP_temperature;BMP_pressure;BME280_temperature;BME280_humidity;BME280_pressure;Samples;Min_cycle;Max_cycle;Signal;HPM_P1;HPM_P2
2023/08/25 00:01:16;;;;;;;7.45;6.05;;;;;;;20.50;100.00;100768.81;5002691;28;20018;-94
2023/08/25 00:03:42;;;;;;;7.75;5.25;;;;;;;20.52;100.00;100777.69;5009105;28;20117;-94
2023/08/25 00:06:07;;;;;;;9.73;6.65;;;;;;;20.49;100.00;100770.06;5011206;28;20114;-94
2023/08/25 00:08:33;;;;;;;8.90;6.10;;;;;;;20.54;100.00;100779.31;5002405;28;20025;-92
2023/08/25 00:10:58;;;;;;;7.45;5.82;;;;;;;20.53;100.00;100778.47;5005728;28;20033;-92
2023/08/25 00:13:23;;;;;;;13.02;8.35;;;;;;;20.33;100.00;100780.69;5010565;28;20049;-93
2023/08/25 00:15:49;;;;;;;11.85;7.53;;;;;;;20.32;100.00;100779.88;4991904;28;20052;-92
2023/08/25 00:18:15;;;;;;;11.25;7.28;;;;;;;20.38;100.00;100786.63;4999493;28;20164;-93
2023/08/25 00:20:41;;;;;;;7.82;6.07;;;;;;;20.38;100.00;100792.31;5003384;28;20052;-93
2023/08/25 00:23:07;;;;;;;9.90;6.28;;;;;;;20.44;100.00;100790.50;5002500;28;20057;-93
2023/08/25 00:25:33;;;;;;;7.50;5.50;;;;;;;20.43;100.00;100780.41;5000875;28;20031;-93
2023/08/25 00:27:59;;;;;;;8.95;6.05;;;;;;;20.44;100.00;100781.97;5009046;28;20087;-92
2023/08/25 00:30:25;;;;;;;13.13;9.10;;;;;;;20.18;100.00;100780.28;5004142;28;20038;-92
2023/08/25 00:32:51;;;;;;;11.77;8.63;;;;;;;20.16;100.00;100766.53;5008420;28;20026;-92
2023/08/25 00:35:16;;;;;;;13.07;7.20;;;;;;;20.24;100.00;100773.63;5008032;28;20527;-92
2023/08/25 00:37:42;;;;;;;11.85;7.38;;;;;;;20.26;100.00;100776.81;5004930;28;20026;-92
2023/08/25 00:40:08;;;;;;;10.70;6.82;;;;;;;20.41;100.00;100788.56;5008953;28;20121;-93
2023/08/25 00:42:33;;;;;;;10.40;7.35;;;;;;;20.40;100.00;100781.28;5006828;28;20377;-90
2023/08/25 00:44:58;;;;;;;13.88;8.63;;;;;;;20.38;100.00;100777.28;5006213;28;20041;-89
2023/08/25 00:47:25;;;;;;;11.10;8.20;;;;;;;20.36;100.00;100780.56;5004937;28;20030;-90
2023/08/25 00:49:54;;;;;;;8.95;8.02;;;;;;;20.40;100.00;100786.97;5011319;28;20050;-89
2023/08/25 00:52:21;;;;;;;9.38;6.82;;;;;;;20.28;100.00;100767.81;5003104;28;20397;-89
2023/08/25 00:54:50;;;;;;;10.50;7.65;;;;;;;20.39;100.00;100784.59;5001537;28;20129;-89
2023/08/25 00:57:15;;;;;;;10.13;7.00;;;;;;;20.26;100.00;100753.25;5002386;28;20033;-89
2023/08/25 00:59:41;;;;;;;15.63;8.43;;;;;;;20.19;100.00;100759.13;5001508;28;20053;-89
2023/08/25 01:02:07;;;;;;;10.45;7.55;;;;;;;20.36;100.00;100782.63;5002988;28;20515;-92
2023/08/25 01:04:33;;;;;;;10.45;8.70;;;;;;;20.30;100.00;100768.16;5003215;28;20076;-91
2023/08/25 01:06:58;;;;;;;13.02;8.70;;;;;;;20.42;100.00;100790.16;5003920;28;20038;-91
2023/08/25 01:09:25;;;;;;;16.15;10.25;;;;;;;20.24;100.00;100784.97;5007997;28;20030;-92
2023/08/25 01:12:04;;;;;;;11.60;9.13;;;;;;;20.17;100.00;100785.16;4993975;28;20116;-92
2023/08/25 01:14:32;;;;;;;15.27;9.07;;;;;;;20.31;100.00;100801.81;5010418;28;20473;-92
2023/08/25 01:17:26;;;;;;;13.00;9.15;;;;;;;20.41;100.00;100805.63;5002665;28;20034;-92
2023/08/25 01:20:06;;;;;;;17.20;10.57;;;;;;;20.39;100.00;100802.44;5008763;28;20029;-92
2023/08/25 01:23:10;;;;;;;14.70;11.13;;;;;;;20.30;100.00;100794.56;5007801;28;20026;-92
2023/08/25 01:25:36;;;;;;;11.82;9.25;;;;;;;20.27;100.00;100794.66;4998535;28;20037;-91
2023/08/25 01:28:03;;;;;;;12.02;8.77;;;;;;;20.29;100.00;100798.63;5000746;28;20034;-92
2023/08/25 01:30:32;;;;;;;15.57;10.13;;;;;;;20.36;100.00;100796.84;5007526;28;20413;-91
2023/08/25 01:32:58;;;;;;;14.32;9.13;;;;;;;20.28;100.00;100788.53;4997167;28;20045;-89
2023/08/25 01:35:38;;;;;;;16.75;11.10;;;;;;;20.43;100.00;100800.31;5000103;28;20025;-88
2023/08/25 01:38:16;;;;;;;17.73;11.30;;;;;;;20.29;100.00;100789.31;5002781;28;20030;-89
2023/08/25 01:40:51;;;;;;;12.65;9.52;;;;;;;20.40;100.00;100798.34;5005460;28;20375;-89
2023/08/25 01:43:21;;;;;;;15.18;10.45;;;;;;;20.21;100.00;100774.50;4997802;28;20490;-89
2023/08/25 01:45:48;;;;;;;15.02;10.18;;;;;;;20.17;100.00;100778.69;5004778;28;20037;-89
2023/08/25 01:48:15;;;;;;;17.10;10.10;;;;;;;20.16;100.00;100777.88;5004303;28;20029;-89
2023/08/25 01:50:41;;;;;;;15.50;8.77;;;;;;;20.26;100.00;100795.88;4998246;28;20037;-89
2023/08/25 01:53:08;;;;;;;23.30;14.93;;;;;;;20.18;100.00;100788.81;5002638;28;20022;-88
2023/08/25 01:55:34;;;;;;;14.32;9.07;;;;;;;20.07;100.00;100780.56;4997539;28;20367;-89
2023/08/25 01:57:59;;;;;;;20.30;11.25;;;;;;;20.26;100.00;100793.84;4990242;28;20060;-89
2023/08/25 02:00:25;;;;;;;18.17;11.25;;;;;;;20.31;100.00;100792.50;4998691;28;20486;-89
2023/08/25 02:02:50;;;;;;;14.55;9.27;;;;;;;20.30;100.00;100783.19;5000082;28;20033;-88
2023/08/25 02:05:15;;;;;;;17.30;11.52;;;;;;;20.32;100.00;100785.56;5001038;28;20033;-88
2023/08/25 02:07:41;;;;;;;14.80;10.57;;;;;;;20.23;100.00;100772.00;4999509;28;20064;-88
2023/08/25 02:10:07;;;;;;;17.30;12.02;;;;;;;20.38;100.00;100795.16;5001275;28;20498;-88
2023/08/25 02:12:33;;;;;;;14.02;10.45;;;;;;;20.35;100.00;100781.06;4999357;28;20030;-91
2023/08/25 02:14:59;;;;;;;20.35;12.18;;;;;;;20.13;100.00;100775.13;5002252;28;20057;-91
2023/08/25 02:17:24;;;;;;;19.40;12.07;;;;;;;20.26;100.00;100787.34;5003744;28;20063;-91
2023/08/25 02:19:49;;;;;;;16.13;10.45;;;;;;;20.30;100.00;100782.38;5005327;28;20060;-91
2023/08/25 02:22:15;;;;;;;14.65;9.90;;;;;;;20.13;100.00;100770.25;5004587;28;20030;-89
2023/08/25 02:24:40;;;;;;;18.90;12.52;;;;;;;20.22;100.00;100783.84;4996046;28;20036;-89
2023/08/25 02:27:06;;;;;;;17.52;11.57;;;;;;;20.19;100.00;100776.19;4997546;28;20026;-88
2023/08/25 02:29:31;;;;;;;18.40;12.02;;;;;;;20.22;100.00;100787.47;4999345;28;20064;-89
2023/08/25 02:31:56;;;;;;;15.55;12.50;;;;;;;20.12;100.00;100777.19;4995271;28;20034;-91
2023/08/25 02:34:22;;;;;;;17.95;10.90;;;;;;;20.11;100.00;100769.88;4999779;28;20070;-90
2023/08/25 02:36:48;;;;;;;18.20;12.10;;;;;;;20.08;100.00;100754.53;5004059;28;21803;-91
2023/08/25 02:39:13;;;;;;;15.75;11.18;;;;;;;20.17;100.00;100773.00;5007514;28;20064;-90
2023/08/25 02:41:38;;;;;;;20.67;13.27;;;;;;;20.10;100.00;100769.09;4999453;28;20034;-90
2023/08/25 02:44:04;;;;;;;13.57;9.68;;;;;;;20.15;100.00;100753.53;5002213;28;20025;-91
2023/08/25 02:46:29;;;;;;;17.55;12.45;;;;;;;20.19;100.00;100759.13;5005281;28;20057;-90
2023/08/25 02:48:55;;;;;;;21.27;13.82;;;;;;;20.08;100.00;100742.38;5004493;28;20117;-90
2023/08/25 02:51:20;;;;;;;20.27;13.38;;;;;;;20.03;100.00;100735.22;5004895;28;20058;-90
2023/08/25 02:53:45;;;;;;;20.65;11.35;;;;;;;20.16;100.00;100743.00;5006433;28;20533;-90
2023/08/25 02:56:11;;;;;;;18.45;12.73;;;;;;;20.12;100.00;100736.59;5000955;28;20030;-90
2023/08/25 02:58:36;;;;;;;18.60;12.55;;;;;;;20.08;100.00;100728.19;5004420;28;20030;-90
2023/08/25 03:01:10;;;;;;;23.10;12.15;;;;;;;19.94;100.00;100703.78;5000461;28;20026;-91
2023/08/25 03:03:35;;;;;;;16.58;11.15;;;;;;;20.07;100.00;100727.38;5000052;28;20033;-91
2023/08/25 03:06:01;;;;;;;18.00;11.18;;;;;;;20.06;100.00;100728.63;5001528;28;20500;-90
2023/08/25 03:08:27;;;;;;;20.13;11.95;;;;;;;20.00;100.00;100721.88;5000825;28;20025;-90
2023/08/25 03:10:53;;;;;;;16.63;10.90;;;;;;;20.02;100.00;100725.06;5005507;28;20215;-91
2023/08/25 03:13:19;;;;;;;20.60;10.85;;;;;;;20.00;100.00;100716.19;5007450;28;20038;-90
2023/08/25 03:15:48;;;;;;;18.13;11.55;;;;;;;20.01;100.00;100719.84;5005344;28;20040;-90
2023/08/25 03:18:16;;;;;;;21.30;12.00;;;;;;;20.00;100.00;100719.03;5002539;28;20034;-90
2023/08/25 03:20:41;;;;;;;19.23;11.98;;;;;;;19.79;100.00;100692.00;5011956;28;20042;-90
2023/08/25 03:23:07;;;;;;;20.20;13.38;;;;;;;19.89;100.00;100707.97;5003936;28;20172;-90
2023/08/25 03:25:37;;;;;;;20.48;12.55;;;;;;;19.89;100.00;100710.81;5006048;28;20030;-90
2023/08/25 03:28:02;;;;;;;20.20;11.27;;;;;;;19.82;100.00;100696.03;5007273;28;20554;-90
2023/08/25 03:30:28;;;;;;;25.95;14.13;;;;;;;19.84;100.00;100699.22;5000761;28;20034;-91
2023/08/25 03:32:53;;;;;;;17.85;11.07;;;;;;;19.83;100.00;100703.28;5001966;28;20036;-90
2023/08/25 03:35:18;;;;;;;17.67;11.65;;;;;;;19.83;100.00;100706.13;5005669;28;20085;-91
2023/08/25 03:37:44;;;;;;;16.92;11.68;;;;;;;19.86;100.00;100705.25;5014127;28;20029;-90
2023/08/25 03:40:10;;;;;;;17.10;12.43;;;;;;;19.81;100.00;100694.41;5012517;28;20032;-90
2023/08/25 03:42:35;;;;;;;18.50;13.15;;;;;;;19.73;100.00;100675.97;5012317;28;20055;-91
2023/08/25 03:45:01;;;;;;;20.75;12.82;;;;;;;19.70;100.00;100680.50;5004329;28;20142;-90
2023/08/25 03:47:26;;;;;;;20.88;13.00;;;;;;;19.79;100.00;100691.22;5004565;28;20030;-90
2023/08/25 03:49:52;;;;;;;19.02;13.10;;;;;;;19.74;100.00;100694.59;5015686;28;20085;-91
2023/08/25 03:52:17;;;;;;;21.45;13.02;;;;;;;19.72;100.00;100689.38;5002830;28;20026;-91
2023/08/25 03:54:43;;;;;;;20.60;13.23;;;;;;;19.56;100.00;100660.97;5001379;28;20037;-90
2023/08/25 03:57:08;;;;;;;23.98;14.45;;;;;;;19.73;100.00;100688.09;5002795;28;20457;-91
2023/08/25 03:59:34;;;;;;;24.17;13.48;;;;;;;19.67;100.00;100684.22;4995462;28;20042;-89
2023/08/25 04:02:01;;;;;;;20.73;14.30;;;;;;;19.67;100.00;100685.00;5002569;28;20130;-90
2023/08/25 04:04:27;;;;;;;24.30;13.70;;;;;;;19.66;100.00;100683.38;5002513;28;20045;-90
2023/08/25 04:06:53;;;;;;;22.67;13.60;;;;;;;19.73;100.00;100690.94;4998579;28;20064;-91
2023/08/25 04:09:19;;;;;;;18.05;12.73;;;;;;;19.67;100.00;100690.69;5007839;28;20037;-90
2023/08/25 04:11:44;;;;;;;21.13;13.52;;;;;;;19.65;100.00;100698.84;4998196;28;20033;-91
2023/08/25 04:14:10;;;;;;;22.08;13.75;;;;;;;19.68;100.00;100691.47;5009678;28;20040;-90
2023/08/25 04:16:35;;;;;;;25.77;14.48;;;;;;;19.50;100.00;100677.72;5000617;28;20141;-90
2023/08/25 04:19:00;;;;;;;22.52;13.55;;;;;;;19.59;100.00;100691.31;5000255;28;20489;-90
2023/08/25 04:21:26;;;;;;;24.45;15.57;;;;;;;19.62;100.00;100693.25;5000018;28;20026;-91
2023/08/25 04:23:51;;;;;;;22.83;14.73;;;;;;;19.38;100.00;100672.78;5001641;28;20030;-91
2023/08/25 04:26:17;;;;;;;22.83;14.65;;;;;;;19.49;100.00;100684.66;5003152;28;20033;-91
2023/08/25 04:28:42;;;;;;;20.05;14.60;;;;;;;19.52;100.00;100683.75;5000163;28;20121;-91
2023/08/25 04:31:07;;;;;;;24.92;15.77;;;;;;;19.54;100.00;100689.78;5008341;28;20034;-91
2023/08/25 04:33:33;;;;;;;23.73;14.38;;;;;;;19.52;100.00;100686.59;5004179;28;21536;-91
2023/08/25 04:35:58;;;;;;;24.27;13.45;;;;;;;19.51;100.00;100687.84;5019693;28;20034;-92
2023/08/25 04:38:23;;;;;;;21.13;14.02;;;;;;;19.53;100.00;100688.22;5003884;28;20398;-90
2023/08/25 04:40:49;;;;;;;24.27;14.88;;;;;;;19.50;100.00;100687.06;5000296;28;20120;-90
2023/08/25 04:43:14;;;;;;;24.92;14.32;;;;;;;19.43;100.00;100686.44;5003304;28;20544;-91
2023/08/25 04:45:40;;;;;;;26.13;15.23;;;;;;;19.44;100.00;100682.38;5000221;28;20124;-91
2023/08/25 04:48:05;;;;;;;26.38;14.90;;;;;;;19.44;100.00;100685.22;5001536;28;20148;-91
2023/08/25 04:50:30;;;;;;;25.95;14.45;;;;;;;19.41;100.00;100678.34;4999335;28;20171;-91
2023/08/25 04:52:56;;;;;;;23.40;14.68;;;;;;;19.42;100.00;100679.19;4999695;28;20034;-91
2023/08/25 04:55:21;;;;;;;22.80;14.10;;;;;;;19.45;100.00;100683.94;4998783;28;20742;-90
2023/08/25 04:57:46;;;;;;;22.38;14.35;;;;;;;19.46;100.00;100679.88;5003369;28;20034;-90
2023/08/25 05:00:12;;;;;;;29.10;17.10;;;;;;;19.40;100.00;100675.97;5015591;28;20026;-91
2023/08/25 05:02:38;;;;;;;31.02;18.13;;;;;;;19.39;100.00;100675.16;4997660;28;20485;-88
2023/08/25 05:05:06;;;;;;;28.88;17.65;;;;;;;19.30;100.00;100664.44;5001060;28;20026;-88
2023/08/25 05:07:32;;;;;;;26.85;15.75;;;;;;;19.42;100.00;100682.00;5006170;28;20083;-88
2023/08/25 05:09:57;;;;;;;32.80;17.45;;;;;;;19.38;100.00;100679.25;5002985;28;20116;-88
2023/08/25 05:12:23;;;;;;;29.00;16.70;;;;;;;19.36;100.00;100681.75;5003427;28;20095;-89
2023/08/25 05:14:48;;;;;;;33.00;18.27;;;;;;;19.37;100.00;100668.34;5000414;28;20038;-88
2023/08/25 05:17:13;;;;;;;32.80;17.90;;;;;;;19.44;100.00;100682.38;4996083;28;20084;-88
2023/08/25 05:19:39;;;;;;;32.25;17.52;;;;;;;19.44;100.00;100679.53;5008213;28;20033;-88
2023/08/25 05:22:04;;;;;;;26.35;16.40;;;;;;;19.47;100.00;100681.47;5002805;28;20482;-88
2023/08/25 05:24:30;;;;;;;29.00;17.80;;;;;;;19.53;100.00;100682.53;4999459;28;20026;-88
2023/08/25 05:26:56;;;;;;;25.55;15.80;;;;;;;19.52;100.00;100672.41;5000099;28;20064;-88
2023/08/25 05:29:26;;;;;;;29.42;17.67;;;;;;;19.49;100.00;100678.97;5002171;28;20486;-88
2023/08/25 05:31:52;;;;;;;27.00;16.73;;;;;;;19.46;100.00;100668.53;5004199;28;20474;-88
2023/08/25 05:34:18;;;;;;;43.58;23.77;;;;;;;19.40;100.00;100673.16;5003768;28;20290;-88
2023/08/25 05:36:44;;;;;;;29.75;18.33;;;;;;;19.36;100.00;100670.38;5002103;28;20496;-89
2023/08/25 05:39:10;;;;;;;36.90;22.33;;;;;;;19.35;100.00;100653.78;5006659;28;20132;-89
2023/08/25 05:41:35;;;;;;;32.58;18.27;;;;;;;19.35;100.00;100676.50;5001280;28;20025;-88
2023/08/25 05:44:01;;;;;;;41.15;21.90;;;;;;;19.34;100.00;100686.28;4998588;28;20109;-88
2023/08/25 05:46:29;;;;;;;35.55;20.60;;;;;;;19.32;100.00;100677.41;5003988;28;20030;-89
2023/08/25 05:48:54;;;;;;;40.63;22.27;;;;;;;19.43;100.00;100697.78;4999859;28;20026;-88
2023/08/25 05:51:19;;;;;;;39.25;20.80;;;;;;;19.26;100.00;100703.47;5002565;28;20045;-88
2023/08/25 05:53:45;;;;;;;38.05;21.48;;;;;;;19.17;100.00;100694.78;5006065;28;20037;-89
2023/08/25 05:56:10;;;;;;;30.20;17.75;;;;;;;19.22;100.00;100688.56;4996346;28;20087;-88
2023/08/25 05:58:36;;;;;;;34.85;19.45;;;;;;;19.40;100.00;100688.13;5003982;28;20091;-88
2023/08/25 06:01:01;;;;;;;35.03;19.33;;;;;;;19.35;100.00;100676.50;4996637;28;20491;-88
2023/08/25 06:03:27;;;;;;;34.03;17.98;;;;;;;19.46;100.00;100688.41;4993022;28;20029;-88
2023/08/25 06:05:53;;;;;;;34.30;19.58;;;;;;;19.49;100.00;100678.97;5000404;28;20033;-87
2023/08/25 06:08:20;;;;;;;25.67;15.48;;;;;;;19.57;100.00;100691.75;5001293;28;20053;-88
2023/08/25 06:10:46;;;;;;;29.75;18.63;;;;;;;19.47;100.00;100670.91;5002094;28;20550;-87
2023/08/25 06:13:12;;;;;;;34.83;18.50;;;;;;;19.60;100.00;100684.38;5010481;28;20050;-88
2023/08/25 06:15:38;;;;;;;29.85;16.42;;;;;;;19.57;100.00;100668.25;5002660;28;20083;-88
2023/08/25 06:18:03;;;;;;;32.10;18.02;;;;;;;19.54;100.00;100652.88;5003057;28;20030;-88
2023/08/25 06:20:30;;;;;;;28.25;17.23;;;;;;;19.62;100.00;100665.66;5001813;28;20490;-87
2023/08/25 06:22:56;;;;;;;25.20;14.98;;;;;;;19.68;100.00;100675.22;5002044;28;20038;-87
2023/08/25 06:25:22;;;;;;;28.00;15.57;;;;;;;19.60;100.00;100668.13;4997454;28;20084;-88
2023/08/25 06:27:47;;;;;;;15.32;10.10;;;;;;;19.70;100.00;100661.41;4996611;28;20490;-88
2023/08/25 06:30:13;;;;;;;15.38;8.65;;;;;;;20.40;100.00;100656.19;4991704;28;20037;-89
2023/08/25 06:32:39;;;;;;;26.40;14.57;;;;;;;20.73;100.00;100661.75;5002035;28;20034;-88
2023/08/25 06:35:05;;;;;;;25.00;15.65;;;;;;;20.66;100.00;100656.25;5000870;28;20057;-87
2023/08/25 06:37:30;;;;;;;29.50;17.00;;;;;;;20.35;100.00;100653.94;4995978;28;20026;-88
2023/08/25 06:39:55;;;;;;;30.00;16.98;;;;;;;20.79;100.00;100648.56;4996386;28;20091;-87
2023/08/25 06:42:21;;;;;;;27.20;16.00;;;;;;;20.94;100.00;100637.53;4992368;28;20033;-87
2023/08/25 06:44:46;;;;;;;31.17;17.48;;;;;;;20.97;100.00;100647.19;4994735;28;20485;-87
2023/08/25 06:47:12;;;;;;;30.70;17.48;;;;;;;21.01;100.00;100650.72;5002760;28;20030;-87
2023/08/25 06:49:37;;;;;;;32.58;18.77;;;;;;;21.15;100.00;100646.63;5000130;28;20076;-87
2023/08/25 06:52:03;;;;;;;34.03;18.38;;;;;;;21.30;100.00;100654.19;5001459;28;20033;-87
2023/08/25 06:54:28;;;;;;;32.22;16.83;;;;;;;21.36;100.00;100662.19;4995949;28;20128;-87
2023/08/25 06:56:54;;;;;;;30.88;17.45;;;;;;;21.36;100.00;100659.34;4996296;28;20116;-88
2023/08/25 06:59:19;;;;;;;29.35;16.58;;;;;;;21.51;100.00;100660.47;4999312;28;20037;-80
2023/08/25 07:01:44;;;;;;;32.58;17.77;;;;;;;21.49;100.00;100663.75;4994606;28;20040;-84
2023/08/25 07:04:10;;;;;;;35.30;17.92;;;;;;;21.57;100.00;100654.97;4996698;28;20387;-83
2023/08/25 07:06:36;;;;;;;29.48;18.02;;;;;;;21.65;100.00;100668.53;5002675;28;20030;-83
2023/08/25 07:09:06;;;;;;;33.50;19.38;;;;;;;21.65;100.00;100662.81;4998988;28;20430;-84
2023/08/25 07:11:32;;;;;;;33.50;19.73;;;;;;;21.51;100.00;100661.25;5001334;28;20430;-85
2023/08/25 07:13:58;;;;;;;29.55;17.17;;;;;;;21.72;100.00;100668.25;4994777;28;20080;-83
2023/08/25 07:16:24;;;;;;;32.88;18.95;;;;;;;21.72;100.00;100658.91;4997430;28;20032;-83
2023/08/25 07:18:50;;;;;;;33.90;20.05;;;;;;;21.60;100.00;100652.00;4997066;28;20390;-83
2023/08/25 07:21:15;;;;;;;30.73;17.98;;;;;;;21.80;100.00;100651.72;5000472;28;20478;-87
2023/08/25 07:23:43;;;;;;;24.23;14.18;;;;;;;21.75;100.00;100658.00;5003027;28;20461;-87
2023/08/25 07:26:09;;;;;;;27.30;16.33;;;;;;;21.94;100.00;100656.09;5002440;28;20453;-87
2023/08/25 07:28:35;;;;;;;25.27;15.85;;;;;;;21.86;100.00;100657.59;4998521;28;20028;-87
2023/08/25 07:31:00;;;;;;;25.77;17.00;;;;;;;21.91;100.00;100652.13;4999252;28;20103;-86
2023/08/25 07:33:26;;;;;;;23.67;15.63;;;;;;;21.87;100.00;100662.06;5005827;28;20113;-87
2023/08/25 07:35:51;;;;;;;26.45;14.75;;;;;;;21.89;100.00;100653.84;4996128;28;20072;-86
2023/08/25 07:38:17;;;;;;;30.05;16.52;;;;;;;21.97;100.00;100652.34;4993604;28;20033;-87
2023/08/25 07:40:42;;;;;;;26.92;16.88;;;;;;;22.07;100.00;100641.78;5000676;28;20050;-86
2023/08/25 07:43:08;;;;;;;29.45;18.40;;;;;;;21.87;100.00;100642.13;4999012;28;20054;-86
2023/08/25 07:45:35;;;;;;;27.85;17.27;;;;;;;22.08;100.00;100652.72;4995650;28;20544;-86
2023/08/25 07:48:01;;;;;;;30.33;18.35;;;;;;;21.79;100.00;100646.47;4997820;28;20029;-87
2023/08/25 07:50:28;;;;;;;28.42;18.33;;;;;;;21.95;100.00;100651.19;4999423;28;20452;-86
2023/08/25 07:52:54;;;;;;;23.67;14.38;;;;;;;22.06;100.00;100641.00;4999304;28;20129;-86
2023/08/25 07:55:20;;;;;;;30.67;15.75;;;;;;;22.18;100.00;100642.19;4996697;28;20152;-87
2023/08/25 07:57:48;;;;;;;28.25;15.13;;;;;;;22.29;100.00;100656.84;4998057;28;20033;-83
2023/08/25 08:00:18;;;;;;;20.88;13.43;;;;;;;22.23;100.00;100650.16;5004342;28;20513;-86
2023/08/25 08:02:47;;;;;;;19.95;14.73;;;;;;;22.31;100.00;100647.84;5000517;28;20026;-86
2023/08/25 08:05:17;;;;;;;24.25;15.52;;;;;;;22.44;100.00;100656.31;4996816;28;20968;-86
2023/08/25 08:07:44;;;;;;;24.48;13.45;;;;;;;22.47;100.00;100656.19;5003165;28;20101;-86
2023/08/25 08:10:13;;;;;;;22.35;13.43;;;;;;;22.52;100.00;100655.56;4999941;28;20036;-87
2023/08/25 08:12:39;;;;;;;21.15;13.15;;;;;;;22.60;100.00;100661.00;4998114;28;20049;-85
2023/08/25 08:15:06;;;;;;;21.52;13.25;;;;;;;22.58;100.00;100660.66;4982642;28;20034;-86
2023/08/25 08:17:31;;;;;;;21.13;12.65;;;;;;;22.56;100.00;100671.75;4981300;28;20034;-86
2023/08/25 08:19:57;;;;;;;25.23;14.48;;;;;;;22.58;100.00;100657.81;4981384;28;20386;-84
2023/08/25 08:22:22;;;;;;;22.02;12.23;;;;;;;22.57;100.00;100661.94;4981981;28;20110;-86
2023/08/25 08:24:48;;;;;;;24.40;14.02;;;;;;;22.51;100.00;100651.13;4977028;28;20041;-86
2023/08/25 08:27:18;;;;;;;22.75;13.70;;;;;;;22.58;100.00;100643.56;4985980;28;20034;-85
2023/08/25 08:29:45;;;;;;;23.52;13.43;;;;;;;22.68;100.00;100630.94;4980221;28;20029;-86
2023/08/25 08:32:12;;;;;;;20.58;13.40;;;;;;;22.68;100.00;100643.16;4979381;28;20042;-81
2023/08/25 08:34:37;;;;;;;18.85;11.88;;;;;;;22.68;100.00;100650.91;4979203;28;20434;-80
2023/08/25 08:37:06;;;;;;;19.02;11.95;;;;;;;22.66;100.00;100650.56;4982230;28;20083;-79
2023/08/25 08:39:37;;;;;;;18.02;11.60;;;;;;;22.68;100.00;100662.31;4984145;28;20022;-79
2023/08/25 08:42:03;;;;;;;24.02;13.60;;;;;;;22.69;100.00;100664.69;4984492;28;20026;-79
2023/08/25 08:44:35;;;;;;;18.88;11.93;;;;;;;22.71;100.00;100664.25;4983729;28;20789;-80
2023/08/25 08:47:03;;;;;;;20.63;13.05;;;;;;;22.68;100.00;100662.31;4976375;28;20033;-81
2023/08/25 08:49:30;;;;;;;22.83;14.63;;;;;;;22.61;100.00;100663.38;4977450;28;20493;-79
2023/08/25 08:51:56;;;;;;;22.77;14.07;;;;;;;22.53;100.00;100657.16;4978271;28;20034;-79
2023/08/25 08:54:25;;;;;;;22.33;13.63;;;;;;;22.58;100.00;100666.38;4980349;28;20042;-79
2023/08/25 08:56:51;;;;;;;24.38;14.00;;;;;;;22.66;100.00;100677.06;4969957;28;20065;-80
2023/08/25 08:59:17;;;;;;;24.27;15.35;;;;;;;22.71;100.00;100681.34;4978615;28;20053;-81
2023/08/25 09:01:42;;;;;;;22.85;12.95;;;;;;;22.63;100.00;100685.75;4975548;28;20139;-80
2023/08/25 09:04:08;;;;;;;24.30;14.38;;;;;;;22.71;100.00;100684.22;4979620;28;20080;-80
2023/08/25 09:06:39;;;;;;;27.25;15.57;;;;;;;22.68;100.00;100685.94;4973958;28;20129;-81
2023/08/25 09:09:08;;;;;;;22.73;13.95;;;;;;;22.76;100.00;100691.38;4978126;28;20542;-80
2023/08/25 09:11:37;;;;;;;25.55;14.02;;;;;;;22.81;100.00;100687.88;4975693;28;20558;-81
2023/08/25 09:14:05;;;;;;;21.45;12.80;;;;;;;22.77;100.00;100690.91;4993938;28;20041;-80
2023/08/25 09:16:34;;;;;;;22.60;12.90;;;;;;;22.82;100.00;100695.19;4995915;28;20478;-81
2023/08/25 09:19:02;;;;;;;24.17;14.60;;;;;;;22.69;100.00;100698.16;4999755;28;20040;-80
2023/08/25 09:21:28;;;;;;;23.70;14.55;;;;;;;22.77;100.00;100692.94;5002203;28;20026;-80
2023/08/25 09:24:02;;;;;;;22.48;14.80;;;;;;;22.68;100.00;100687.97;4982347;28;20513;-80
2023/08/25 09:26:35;;;;;;;23.13;14.57;;;;;;;22.71;100.00;100684.22;4993669;28;20524;-79
2023/08/25 09:29:00;;;;;;;24.85;16.13;;;;;;;22.78;100.00;100683.13;5006139;28;20026;-80
2023/08/25 09:31:28;;;;;;;24.10;15.73;;;;;;;22.73;100.00;100684.53;4998772;28;20045;-79
2023/08/25 09:34:05;;;;;;;25.60;15.30;;;;;;;22.81;100.00;100677.28;5010658;28;20470;-80
2023/08/25 09:36:31;;;;;;;23.55;14.75;;;;;;;22.84;100.00;100690.59;4991995;28;20026;-80
2023/08/25 09:38:57;;;;;;;27.02;14.40;;;;;;;22.82;100.00;100680.94;4996970;28;20056;-80
2023/08/25 09:41:27;;;;;;;21.42;13.95;;;;;;;22.87;100.00;100680.31;4998274;28;20076;-81
2023/08/25 09:44:00;;;;;;;23.75;15.27;;;;;;;22.84;100.00;100681.25;5001748;28;20037;-82
2023/08/25 09:46:30;;;;;;;29.27;15.68;;;;;;;22.77;100.00;100685.19;4995908;28;20038;-81
2023/08/25 09:49:04;;;;;;;26.73;14.45;;;;;;;22.75;100.00;100696.28;5000862;28;20496;-80
2023/08/25 09:51:43;;;;;;;24.67;15.18;;;;;;;22.22;100.00;100687.66;5001830;28;20041;-84
2023/08/25 09:54:12;;;;;;;27.10;15.32;;;;;;;22.20;100.00;100691.00;5009080;28;20049;-84
2023/08/25 09:56:39;;;;;;;32.60;18.60;;;;;;;21.89;100.00;100688.03;5001386;28;20036;-83
2023/08/25 09:59:06;;;;;;;25.90;14.80;;;;;;;22.24;100.00;100703.09;4999037;28;20036;-84
2023/08/25 10:01:33;;;;;;;32.70;15.55;;;;;;;22.09;100.00;100684.88;5000268;28;20045;-83
2023/08/25 10:03:59;;;;;;;28.83;18.52;;;;;;;22.22;100.00;100694.16;4999857;28;20091;-83
2023/08/25 10:06:25;;;;;;;33.67;18.63;;;;;;;22.19;100.00;100708.53;5005971;28;20027;-83
2023/08/25 10:08:52;;;;;;;34.63;18.83;;;;;;;22.27;100.00;100721.31;4999260;28;20486;-87
2023/08/25 10:11:19;;;;;;;27.48;15.27;;;;;;;21.88;100.00;100698.66;5000245;28;20026;-84
2023/08/25 10:13:52;;;;;;;38.50;17.95;;;;;;;22.30;100.00;100698.38;5006793;28;20513;-83
2023/08/25 10:16:19;;;;;;;33.08;17.92;;;;;;;22.49;100.00;100699.31;4995532;28;20026;-83
2023/08/25 10:18:45;;;;;;;34.67;16.65;;;;;;;22.51;100.00;100698.81;4995030;28;20111;-83
2023/08/25 10:21:13;;;;;;;29.65;16.23;;;;;;;22.44;100.00;100699.09;5008323;28;20021;-83
2023/08/25 10:23:40;;;;;;;26.98;14.50;;;;;;;22.50;100.00;100691.53;5002137;28;20033;-83
2023/08/25 10:26:06;;;;;;;29.33;15.35;;;;;;;22.55;100.00;100687.28;4997025;28;20026;-82
2023/08/25 10:28:34;;;;;;;25.58;14.73;;;;;;;22.19;100.00;100682.88;4996840;28;20525;-82
2023/08/25 10:31:00;;;;;;;30.13;14.13;;;;;;;22.27;100.00;100684.25;4995290;28;20466;-82
2023/08/25 10:33:25;;;;;;;26.60;14.27;;;;;;;22.44;100.00;100684.84;5001915;28;20088;-82
2023/08/25 10:35:54;;;;;;;26.70;15.00;;;;;;;22.38;100.00;100681.78;4994235;28;20026;-82
2023/08/25 10:38:19;;;;;;;23.63;14.68;;;;;;;22.24;100.00;100685.16;5009818;28;20061;-82
2023/08/25 10:40:56;;;;;;;22.10;12.90;;;;;;;22.32;100.00;100681.56;4993927;28;20037;-82
2023/08/25 10:43:30;;;;;;;23.88;12.60;;;;;;;22.33;100.00;100676.69;4999913;28;20148;-82
2023/08/25 10:45:56;;;;;;;22.17;14.13;;;;;;;22.48;100.00;100672.03;4999685;28;20030;-82
2023/08/25 10:48:25;;;;;;;25.10;12.60;;;;;;;22.49;100.00;100675.66;4997507;28;20038;-82
2023/08/25 10:50:52;;;;;;;28.13;12.88;;;;;;;22.53;100.00;100679.97;5002942;28;20461;-82
2023/08/25 10:53:37;;;;;;;24.20;13.15;;;;;;;22.55;100.00;100668.09;4995864;28;20037;-82
2023/08/25 10:56:14;;;;;;;23.77;12.70;;;;;;;22.52;100.00;100666.97;4996638;28;20057;-81
2023/08/25 10:58:39;;;;;;;19.45;11.98;;;;;;;22.61;100.00;100656.91;4997306;28;20048;-82
2023/08/25 11:01:05;;;;;;;24.33;14.68;;;;;;;22.73;100.00;100647.44;4998453;28;20026;-82